createdAt,value
2022-10-02T00:02:21.507Z,2.10
2022-10-02T00:04:54.317Z,1.85
2022-10-02T00:07:24.932Z,1.83
2022-10-02T00:09:56.622Z,2.35
2022-10-02T00:12:26.229Z,2.15
2022-10-02T00:15:01.261Z,2.08
2022-10-02T00:17:40.340Z,2.28
2022-10-02T00:20:17.546Z,2.85
2022-10-02T00:23:10.273Z,2.05
2022-10-02T00:25:44.864Z,2.28
2022-10-02T00:28:11.275Z,2.55
2022-10-02T00:30:49.256Z,1.90
2022-10-02T00:33:54.425Z,2.47
2022-10-02T00:36:34.879Z,1.73
2022-10-02T00:39:10.859Z,2.53
2022-10-02T00:41:58.466Z,1.90
2022-10-02T00:44:39.393Z,2.67
2022-10-02T00:47:20.226Z,2.83
2022-10-02T00:49:55.224Z,1.85
2022-10-02T00:52:27.368Z,2.40
2022-10-02T00:55:09.484Z,2.17
2022-10-02T00:57:41.576Z,2.58
2022-10-02T01:00:18.909Z,2.00
2022-10-02T01:03:06.970Z,2.65
2022-10-02T01:05:34.693Z,2.53
2022-10-02T01:08:02.211Z,2.25
2022-10-02T01:10:29.589Z,3.22
2022-10-02T01:12:57.341Z,3.17
2022-10-02T01:15:30.903Z,2.90
2022-10-02T01:17:58.045Z,2.80
2022-10-02T01:20:37.778Z,2.83
2022-10-02T01:23:38.093Z,3.75
2022-10-02T01:26:04.831Z,3.08
2022-10-02T01:28:31.563Z,2.97
2022-10-02T01:31:04.890Z,3.13
2022-10-02T01:33:32.273Z,3.17
2022-10-02T01:35:59.233Z,2.90
2022-10-02T01:38:27.729Z,3.85
2022-10-02T01:40:54.181Z,3.70
2022-10-02T01:43:37.185Z,3.05
2022-10-02T01:46:24.430Z,3.25
2022-10-02T01:49:26.310Z,3.28
2022-10-02T01:52:13.023Z,3.70
2022-10-02T01:55:07.449Z,3.33
2022-10-02T01:58:33.694Z,3.38
2022-10-02T02:01:20.336Z,4.85
2022-10-02T02:04:04.669Z,4.35
2022-10-02T02:06:58.392Z,4.65
2022-10-02T02:09:43.037Z,5.10
2022-10-02T02:12:12.171Z,4.03
2022-10-02T02:14:53.374Z,3.35
2022-10-02T02:17:39.618Z,4.40
2022-10-02T02:20:12.793Z,4.03
2022-10-02T02:22:45.571Z,4.00
2022-10-02T02:25:20.056Z,4.10
2022-10-02T02:27:52.374Z,4.68
2022-10-02T02:30:20.770Z,5.05
2022-10-02T02:32:52.216Z,4.22
2022-10-02T02:35:34.096Z,4.60
2022-10-02T02:38:06.160Z,4.63
2022-10-02T02:40:39.398Z,5.18
2022-10-02T02:43:15.119Z,4.70
2022-10-02T02:45:49.146Z,4.22
2022-10-02T02:48:22.243Z,4.45
2022-10-02T02:50:57.464Z,5.85
2022-10-02T02:53:33.447Z,4.28
2022-10-02T02:56:02.568Z,3.92
2022-10-02T02:58:39.770Z,6.40
2022-10-02T03:01:06.295Z,4.68
2022-10-02T03:03:33.018Z,4.43
2022-10-02T03:06:18.844Z,4.40
2022-10-02T03:08:47.584Z,5.07
2022-10-02T03:11:40.248Z,5.55
2022-10-02T03:14:12.908Z,4.72
2022-10-02T03:17:07.836Z,4.53
2022-10-02T03:19:47.910Z,4.65
2022-10-02T03:22:28.052Z,5.28
2022-10-02T03:25:12.150Z,3.92
2022-10-02T03:28:07.271Z,5.38
2022-10-02T03:30:36.145Z,4.10
2022-10-02T03:33:04.976Z,5.05
2022-10-02T03:35:32.447Z,5.38
2022-10-02T03:38:05.711Z,4.97
2022-10-02T03:40:32.254Z,6.00
2022-10-02T03:42:58.968Z,5.70
2022-10-02T03:45:49.575Z,4.63
2022-10-02T03:48:13.200Z,5.10
2022-10-02T03:50:39.665Z,4.50
2022-10-02T03:53:19.913Z,5.22
2022-10-02T03:55:57.743Z,5.88
2022-10-02T03:58:25.610Z,4.03
2022-10-02T04:00:58.389Z,5.07
2022-10-02T04:03:33.571Z,4.70
2022-10-02T04:06:04.820Z,5.07
2022-10-02T04:11:25.264Z,3.47
2022-10-02T04:14:10.147Z,4.63
2022-10-02T04:16:43.307Z,5.68
2022-10-02T04:19:25.186Z,4.63
2022-10-02T04:22:02.570Z,4.85
2022-10-02T04:24:38.285Z,5.38
2022-10-02T04:27:22.759Z,5.82
2022-10-02T04:29:57.410Z,6.07
2022-10-02T04:32:30.275Z,5.10
2022-10-02T04:34:57.841Z,5.53
2022-10-02T04:37:51.950Z,6.03
2022-10-02T04:40:52.326Z,6.03
2022-10-02T04:43:37.338Z,6.35
2022-10-02T04:46:13.069Z,5.63
2022-10-02T04:49:05.589Z,5.18
2022-10-02T04:51:46.893Z,5.80
2022-10-02T04:57:14.068Z,5.00
2022-10-02T05:00:05.141Z,5.38
2022-10-02T05:02:34.544Z,5.60
2022-10-02T05:05:30.385Z,4.93
2022-10-02T05:08:15.176Z,5.13
2022-10-02T05:10:44.460Z,5.88
2022-10-02T05:13:32.241Z,5.13
2022-10-02T05:16:08.564Z,5.93
2022-10-02T05:18:44.248Z,7.40
2022-10-02T05:21:25.741Z,5.50
2022-10-02T05:24:01.216Z,5.85
2022-10-02T05:26:39.069Z,6.07
2022-10-02T05:29:31.510Z,5.32
2022-10-02T05:32:03.712Z,5.07
2022-10-02T05:34:48.822Z,5.18
2022-10-02T05:37:42.449Z,5.20
2022-10-02T05:40:25.125Z,4.53
2022-10-02T05:42:54.433Z,4.82
2022-10-02T05:45:30.949Z,5.47
2022-10-02T05:48:07.697Z,5.00
2022-10-02T05:50:36.679Z,4.47
2022-10-02T05:53:10.526Z,5.53
2022-10-02T05:55:44.903Z,5.60
2022-10-02T05:58:22.735Z,5.47
2022-10-02T06:01:00.664Z,5.07
2022-10-02T06:03:39.734Z,5.10
2022-10-02T06:06:12.702Z,4.35
2022-10-02T06:08:47.311Z,6.90
2022-10-02T06:11:24.382Z,5.03
2022-10-02T06:14:19.969Z,5.07
2022-10-02T06:16:55.177Z,5.97
2022-10-02T06:19:29.925Z,5.75
2022-10-02T06:22:07.673Z,5.57
2022-10-02T06:24:43.802Z,4.70
2022-10-02T06:27:17.525Z,5.15
2022-10-02T06:29:50.961Z,5.00
2022-10-02T06:32:43.487Z,8.20
2022-10-02T06:35:15.727Z,5.20
2022-10-02T06:38:01.205Z,6.15
2022-10-02T06:40:42.653Z,6.63
2022-10-02T06:43:40.400Z,6.57
2022-10-02T06:46:34.264Z,8.82
2022-10-02T06:49:11.406Z,13.98
2022-10-02T06:51:59.401Z,14.40
2022-10-02T06:54:45.020Z,14.13
2022-10-02T06:57:11.566Z,14.00
2022-10-02T07:00:14.216Z,21.13
2022-10-02T07:03:02.628Z,12.40
2022-10-02T07:05:37.308Z,8.35
2022-10-02T07:08:12.734Z,5.90
2022-10-02T07:10:49.899Z,5.78
2022-10-02T07:13:35.470Z,7.38
2022-10-02T07:16:09.221Z,5.35
2022-10-02T07:18:58.667Z,7.10
2022-10-02T07:21:46.192Z,5.47
2022-10-02T07:24:41.896Z,5.50
2022-10-02T07:27:14.925Z,5.20
2022-10-02T07:29:53.692Z,5.43
2022-10-02T07:32:38.761Z,5.78
2022-10-02T07:35:22.003Z,5.18
2022-10-02T07:38:15.637Z,5.72
2022-10-02T07:41:04.657Z,6.13
2022-10-02T07:43:36.719Z,5.72
2022-10-02T07:46:48.044Z,6.22
2022-10-02T07:49:24.659Z,5.93
2022-10-02T07:52:15.205Z,5.30
2022-10-02T07:55:00.384Z,5.77
2022-10-02T07:57:49.483Z,5.85
2022-10-02T08:00:19.002Z,5.28
2022-10-02T08:03:08.337Z,6.40
2022-10-02T08:05:47.721Z,6.22
2022-10-02T08:08:24.033Z,5.75
2022-10-02T08:10:58.977Z,6.22
2022-10-02T08:13:32.823Z,5.45
2022-10-02T08:15:59.673Z,5.63
2022-10-02T08:18:43.395Z,6.35
2022-10-02T08:21:15.552Z,5.45
2022-10-02T08:23:50.153Z,7.13
2022-10-02T08:26:22.644Z,6.15
2022-10-02T08:29:05.359Z,5.55
2022-10-02T08:31:35.355Z,5.65
2022-10-02T08:34:13.547Z,7.75
2022-10-02T08:36:54.872Z,6.22
2022-10-02T08:42:24.977Z,6.70
2022-10-02T08:45:22.297Z,5.97
2022-10-02T08:48:23.246Z,6.18
2022-10-02T08:51:01.715Z,6.10
2022-10-02T08:53:49.597Z,5.63
2022-10-02T08:56:19.951Z,6.78
2022-10-02T08:58:58.552Z,5.80
2022-10-02T09:01:59.547Z,4.97
2022-10-02T09:07:28.193Z,6.80
2022-10-02T09:10:29.039Z,5.35
2022-10-02T09:13:31.898Z,5.35
2022-10-02T09:16:12.281Z,5.78
2022-10-02T09:18:56.257Z,7.10
2022-10-02T09:21:56.102Z,7.28
2022-10-02T09:24:43.164Z,5.40
2022-10-02T09:27:31.304Z,5.88
2022-10-02T09:30:20.031Z,6.20
2022-10-02T09:33:27.217Z,5.05
2022-10-02T09:36:01.781Z,6.05
2022-10-02T09:38:53.277Z,4.85
2022-10-02T09:41:31.915Z,5.50
2022-10-02T09:44:18.487Z,5.15
2022-10-02T09:47:06.111Z,4.53
2022-10-02T09:49:50.737Z,6.40
2022-10-02T09:52:23.266Z,4.47
2022-10-02T09:55:17.687Z,5.22
2022-10-02T09:58:11.115Z,4.45
2022-10-02T10:00:56.984Z,4.50
2022-10-02T10:03:39.637Z,5.70
2022-10-02T10:06:18.297Z,5.10
2022-10-02T10:09:12.424Z,4.60
2022-10-02T10:12:15.717Z,5.78
2022-10-02T10:15:09.446Z,5.25
2022-10-02T10:17:55.708Z,4.50
2022-10-02T10:20:36.706Z,4.28
2022-10-02T10:25:50.389Z,3.83
2022-10-02T10:28:19.988Z,5.03
2022-10-02T10:31:10.946Z,4.03
2022-10-02T10:33:56.206Z,2.35
2022-10-02T10:37:14.393Z,4.50
2022-10-02T10:40:02.501Z,3.28
2022-10-02T10:43:07.523Z,3.65
2022-10-02T10:45:54.712Z,4.13
2022-10-02T10:48:39.528Z,4.03
2022-10-02T10:51:31.551Z,4.55
2022-10-02T10:54:01.757Z,3.35
2022-10-02T10:56:37.317Z,3.45
2022-10-02T10:59:37.036Z,3.53
2022-10-02T11:02:14.288Z,4.72
2022-10-02T11:05:11.827Z,3.53
2022-10-02T11:08:23.113Z,3.75
2022-10-02T11:11:27.828Z,3.00
2022-10-02T11:14:21.862Z,2.58
2022-10-02T11:17:13.372Z,2.83
2022-10-02T11:20:19.046Z,2.95
2022-10-02T11:23:20.638Z,3.08
2022-10-02T11:26:10.249Z,2.88
2022-10-02T11:29:07.203Z,5.13
2022-10-02T11:32:05.781Z,4.00
2022-10-02T11:34:51.302Z,3.13
2022-10-02T11:37:39.359Z,2.67
2022-10-02T11:40:34.816Z,4.25
2022-10-02T11:43:22.568Z,3.80
2022-10-02T11:46:16.917Z,3.17
2022-10-02T11:48:59.189Z,3.85
2022-10-02T11:51:35.949Z,5.47
2022-10-02T11:54:44.815Z,3.10
2022-10-02T11:57:39.862Z,3.00
2022-10-02T12:00:14.048Z,2.53
2022-10-02T12:02:43.159Z,3.67
2022-10-02T12:05:55.172Z,3.08
2022-10-02T12:08:36.369Z,3.17
2022-10-02T12:11:15.079Z,2.42
2022-10-02T12:13:48.870Z,3.00
2022-10-02T12:16:36.953Z,3.38
2022-10-02T12:19:33.971Z,3.05
2022-10-02T12:22:45.877Z,4.35
2022-10-02T12:25:49.193Z,2.88
2022-10-02T12:28:36.158Z,3.33
2022-10-02T12:31:14.316Z,3.55
2022-10-02T12:34:01.181Z,2.90
2022-10-02T12:36:44.448Z,3.85
2022-10-02T12:39:37.183Z,3.10
2022-10-02T12:42:15.622Z,3.67
2022-10-02T12:45:19.843Z,3.58
2022-10-02T12:48:04.473Z,2.42
2022-10-02T12:50:47.703Z,3.28
2022-10-02T12:53:14.197Z,3.72
2022-10-02T12:56:02.700Z,3.22
2022-10-02T12:58:53.756Z,3.80
2022-10-02T13:01:43.114Z,3.70
2022-10-02T13:04:28.689Z,3.53
2022-10-02T13:06:58.062Z,3.50
2022-10-02T13:09:28.059Z,10.45
2022-10-02T13:12:12.952Z,3.13
2022-10-02T13:15:17.151Z,5.68
2022-10-02T13:18:07.237Z,4.13
2022-10-02T13:21:06.128Z,3.03
2022-10-02T13:23:46.640Z,3.58
2022-10-02T13:26:45.261Z,2.75
2022-10-02T13:29:57.865Z,4.65
2022-10-02T13:32:52.135Z,4.38
2022-10-02T13:35:46.449Z,4.57
2022-10-02T13:38:50.050Z,3.78
2022-10-02T13:41:16.440Z,3.83
2022-10-02T13:43:49.914Z,3.92
2022-10-02T13:46:37.442Z,5.13
2022-10-02T13:49:20.375Z,3.38
2022-10-02T13:51:57.631Z,4.32
2022-10-02T13:54:50.199Z,4.28
2022-10-02T13:57:43.073Z,3.47
2022-10-02T14:00:10.292Z,4.47
2022-10-02T14:02:48.459Z,4.90
2022-10-02T14:05:31.533Z,3.83
2022-10-02T14:08:19.092Z,4.22
2022-10-02T14:10:54.109Z,5.53
2022-10-02T14:13:38.829Z,4.55
2022-10-02T14:16:31.767Z,4.10
2022-10-02T14:19:07.700Z,3.78
2022-10-02T14:21:46.982Z,4.55
2022-10-02T14:24:47.188Z,3.95
2022-10-02T14:27:45.910Z,4.33
2022-10-02T14:30:20.301Z,3.88
2022-10-02T14:33:06.773Z,4.15
2022-10-02T14:35:42.315Z,3.97
2022-10-02T14:38:24.449Z,4.70
2022-10-02T14:40:54.992Z,3.53
2022-10-02T14:43:43.333Z,4.18
2022-10-02T14:46:21.772Z,4.25
2022-10-02T14:49:09.753Z,3.75
2022-10-02T14:51:40.498Z,3.78
2022-10-02T14:54:24.756Z,3.85
2022-10-02T14:57:30.348Z,3.22
2022-10-02T15:00:15.236Z,3.35
2022-10-02T15:02:48.148Z,2.70
2022-10-02T15:05:42.504Z,3.35
2022-10-02T15:08:39.786Z,4.30
2022-10-02T15:11:21.234Z,3.00
2022-10-02T15:14:00.279Z,2.80
2022-10-02T15:16:59.440Z,3.30
2022-10-02T15:19:50.021Z,3.00
2022-10-02T15:22:32.024Z,2.90
2022-10-02T15:25:06.779Z,2.63
2022-10-02T15:27:47.881Z,3.42
2022-10-02T15:30:21.269Z,2.88
2022-10-02T15:33:11.448Z,2.72
2022-10-02T15:36:00.708Z,3.33
2022-10-02T15:38:58.053Z,2.80
2022-10-02T15:41:37.518Z,2.88
2022-10-02T15:44:33.829Z,2.75
2022-10-02T15:47:11.037Z,2.53
2022-10-02T15:49:56.398Z,2.15
2022-10-02T15:52:52.973Z,2.78
2022-10-02T15:55:22.304Z,2.63
2022-10-02T15:57:54.755Z,2.20
2022-10-02T16:00:22.868Z,1.83
2022-10-02T16:03:19.027Z,2.55
2022-10-02T16:05:58.684Z,2.28
2022-10-02T16:08:43.934Z,2.42
2022-10-02T16:11:33.855Z,2.10
2022-10-02T16:14:07.921Z,2.87
2022-10-02T16:16:56.777Z,2.20
2022-10-02T16:19:32.902Z,2.72
2022-10-02T16:22:14.422Z,2.75
2022-10-02T16:25:22.497Z,2.35
2022-10-02T16:28:10.600Z,2.70
2022-10-02T16:31:02.698Z,2.28
2022-10-02T16:33:47.670Z,2.38
2022-10-02T16:36:31.691Z,3.50
2022-10-02T16:39:34.339Z,3.30
2022-10-02T16:42:27.865Z,3.10
2022-10-02T16:45:03.389Z,2.63
2022-10-02T16:47:43.117Z,2.50
2022-10-02T16:50:29.084Z,2.85
2022-10-02T16:53:05.645Z,2.70
2022-10-02T16:55:50.756Z,2.53
2022-10-02T16:58:32.753Z,3.10
2022-10-02T17:01:25.416Z,4.97
2022-10-02T17:03:56.504Z,2.30
2022-10-02T17:06:24.445Z,3.10
2022-10-02T17:09:05.565Z,3.63
2022-10-02T17:11:44.321Z,2.50
2022-10-02T17:15:19.064Z,2.78
2022-10-02T17:18:21.340Z,2.70
2022-10-02T17:20:54.544Z,2.85
2022-10-02T17:23:33.347Z,3.15
2022-10-02T17:26:14.892Z,4.20
2022-10-02T17:28:50.260Z,3.13
2022-10-02T17:31:22.321Z,4.00
2022-10-02T17:34:02.104Z,3.10
2022-10-02T17:36:35.578Z,3.20
2022-10-02T17:39:50.255Z,3.05
2022-10-02T17:42:22.311Z,4.05
2022-10-02T17:45:26.172Z,4.28
2022-10-02T17:48:08.047Z,4.93
2022-10-02T17:51:11.079Z,4.93
2022-10-02T17:54:20.701Z,5.13
2022-10-02T17:57:12.837Z,5.68
2022-10-02T18:00:05.469Z,5.97
2022-10-02T18:02:58.296Z,8.88
2022-10-02T18:05:45.214Z,7.07
2022-10-02T18:08:45.303Z,6.97
2022-10-02T18:11:33.988Z,6.93
2022-10-02T18:14:10.174Z,5.70
2022-10-02T18:17:06.448Z,5.80
2022-10-02T18:19:42.037Z,5.65
2022-10-02T18:22:26.928Z,6.65
2022-10-02T18:25:12.337Z,7.30
2022-10-02T18:27:55.707Z,6.82
2022-10-02T18:30:24.355Z,7.57
2022-10-02T18:32:51.483Z,8.10
2022-10-02T18:36:15.014Z,9.55
2022-10-02T18:38:58.357Z,7.93
2022-10-02T18:41:42.808Z,8.18
2022-10-02T18:44:21.222Z,7.25
2022-10-02T18:46:50.614Z,7.72
2022-10-02T18:49:44.820Z,7.78
2022-10-02T18:52:36.112Z,7.90
2022-10-02T18:55:34.533Z,12.20
2022-10-02T18:58:20.073Z,7.53
2022-10-02T19:01:24.059Z,5.93
2022-10-02T19:04:17.881Z,5.45
2022-10-02T19:06:54.805Z,4.35
2022-10-02T19:09:26.888Z,4.13
2022-10-02T19:11:57.574Z,4.13
2022-10-02T19:14:42.420Z,3.40
2022-10-02T19:17:14.070Z,3.67
2022-10-02T19:19:41.773Z,3.80
2022-10-02T19:22:38.307Z,2.70
2022-10-02T19:25:23.668Z,2.65
2022-10-02T19:27:56.534Z,2.63
2022-10-02T19:30:29.982Z,2.63
2022-10-02T19:32:58.802Z,2.88
2022-10-02T19:35:33.680Z,2.72
2022-10-02T19:38:20.508Z,2.58
2022-10-02T19:40:53.399Z,2.72
2022-10-02T19:43:24.597Z,3.08
2022-10-02T19:45:57.186Z,3.35
2022-10-02T19:48:27.176Z,2.72
2022-10-02T19:50:59.450Z,2.15
2022-10-02T19:53:47.803Z,3.40
2022-10-02T19:56:24.222Z,4.88
2022-10-02T19:58:58.544Z,1.73
2022-10-02T20:01:28.551Z,3.25
2022-10-02T20:04:01.078Z,3.00
2022-10-02T20:06:31.966Z,5.85
2022-10-02T20:14:07.883Z,2.60
2022-10-02T20:16:53.284Z,2.53
2022-10-02T20:19:25.810Z,3.00
2022-10-02T20:21:57.291Z,2.42
2022-10-02T20:24:37.302Z,4.53
2022-10-02T20:27:11.315Z,2.85
2022-10-02T20:29:46.963Z,3.42
2022-10-02T20:32:21.564Z,2.92
2022-10-02T20:34:56.472Z,3.17
2022-10-02T20:37:29.336Z,2.50
2022-10-02T20:40:03.351Z,2.55
2022-10-02T20:42:35.557Z,2.78
2022-10-02T20:45:02.033Z,4.38
2022-10-02T20:48:03.053Z,2.70
2022-10-02T20:51:05.730Z,3.90
2022-10-02T20:53:50.876Z,3.97
2022-10-02T20:56:52.329Z,3.40
2022-10-02T21:00:15.052Z,3.15
2022-10-02T21:03:02.826Z,3.45
2022-10-02T21:05:37.328Z,4.72
2022-10-02T21:08:26.106Z,3.72
2022-10-02T21:10:55.257Z,3.08
2022-10-02T21:13:45.863Z,4.07
2022-10-02T21:16:29.828Z,5.82
2022-10-02T21:19:15.360Z,4.25
2022-10-02T21:21:44.801Z,4.30
2022-10-02T21:24:43.879Z,6.95
2022-10-02T21:27:31.814Z,4.75
2022-10-02T21:30:17.961Z,3.92
2022-10-02T21:32:59.619Z,3.78
2022-10-02T21:35:44.320Z,3.58
2022-10-02T21:38:43.611Z,4.80
2022-10-02T21:42:07.302Z,4.10
2022-10-02T21:44:48.962Z,4.28
2022-10-02T21:47:43.681Z,4.22
2022-10-02T21:50:47.353Z,5.38
2022-10-02T21:53:45.966Z,4.28
2022-10-02T21:56:52.432Z,5.18
2022-10-02T21:59:49.909Z,5.45
2022-10-02T22:02:47.664Z,3.75
2022-10-02T22:05:38.855Z,3.67
2022-10-02T22:10:55.981Z,5.82
2022-10-02T22:13:37.027Z,4.45
2022-10-02T22:16:37.473Z,3.92
2022-10-02T22:19:15.602Z,6.73
2022-10-02T22:22:12.860Z,4.83
2022-10-02T22:25:14.104Z,4.80
2022-10-02T22:30:28.653Z,3.97
2022-10-02T22:33:33.075Z,4.30
2022-10-02T22:36:34.861Z,3.33
2022-10-02T22:39:27.688Z,4.57
2022-10-02T22:42:00.263Z,4.10
2022-10-02T22:44:33.768Z,6.28
2022-10-02T22:47:00.109Z,6.38
2022-10-02T22:49:29.373Z,4.07
2022-10-02T22:52:04.903Z,6.03
2022-10-02T22:54:35.805Z,4.72
2022-10-02T22:57:02.118Z,4.97
2022-10-02T22:59:44.064Z,4.97
2022-10-02T23:02:52.104Z,4.63
2022-10-02T23:05:24.660Z,4.65
2022-10-02T23:08:18.405Z,4.13
2022-10-02T23:10:51.152Z,5.75
2022-10-02T23:13:41.144Z,4.15
2022-10-02T23:16:21.712Z,4.07
2022-10-02T23:19:15.913Z,4.50
2022-10-02T23:21:47.911Z,4.78
2022-10-02T23:24:28.422Z,5.35
2022-10-02T23:27:13.444Z,4.33
2022-10-02T23:29:54.936Z,4.70
2022-10-02T23:32:27.375Z,5.32
2022-10-02T23:35:00.063Z,6.15
2022-10-02T23:37:53.669Z,3.85
2022-10-02T23:40:44.573Z,4.80
2022-10-02T23:43:16.833Z,5.82
2022-10-02T23:45:54.098Z,4.57
2022-10-02T23:48:21.073Z,5.65
2022-10-02T23:51:09.659Z,5.05
2022-10-02T23:54:00.323Z,4.75
2022-10-02T23:57:04.452Z,5.13
2022-10-02T23:59:47.724Z,5.07
